sensor_id;sensor_type;location;lat;lon;timestamp;temperature;humidity
52575;DHT22;38468;48.114;-1.684;2023-03-11T00:01:03;5.30;80.70
52575;DHT22;38468;48.114;-1.684;2023-03-11T00:03:05;5.40;80.60
52575;DHT22;38468;48.114;-1.684;2023-03-11T00:05:07;5.30;80.20
52575;DHT22;38468;48.114;-1.684;2023-03-11T00:07:09;5.30;80.40
52575;DHT22;38468;48.114;-1.684;2023-03-11T00:09:10;5.40;80.50
52575;DHT22;38468;48.114;-1.684;2023-03-11T00:11:11;5.40;80.30
52575;DHT22;38468;48.114;-1.684;2023-03-11T00:13:13;5.40;80.20
52575;DHT22;38468;48.114;-1.684;2023-03-11T00:15:14;5.40;80.00
52575;DHT22;38468;48.114;-1.684;2023-03-11T00:17:15;5.40;80.00
52575;DHT22;38468;48.114;-1.684;2023-03-11T00:19:16;5.40;79.90
52575;DHT22;38468;48.114;-1.684;2023-03-11T00:21:17;5.40;79.70
52575;DHT22;38468;48.114;-1.684;2023-03-11T00:23:19;5.50;79.80
52575;DHT22;38468;48.114;-1.684;2023-03-11T00:25:22;5.50;79.80
52575;DHT22;38468;48.114;-1.684;2023-03-11T00:27:23;5.50;79.80
52575;DHT22;38468;48.114;-1.684;2023-03-11T00:29:24;5.50;79.90
52575;DHT22;38468;48.114;-1.684;2023-03-11T00:31:24;5.50;79.80
52575;DHT22;38468;48.114;-1.684;2023-03-11T00:33:28;5.50;80.00
52575;DHT22;38468;48.114;-1.684;2023-03-11T00:35:30;5.70;80.10
52575;DHT22;38468;48.114;-1.684;2023-03-11T00:37:31;5.70;80.30
52575;DHT22;38468;48.114;-1.684;2023-03-11T00:39:31;5.70;80.30
52575;DHT22;38468;48.114;-1.684;2023-03-11T00:41:33;5.70;80.10
52575;DHT22;38468;48.114;-1.684;2023-03-11T00:43:34;5.70;80.00
52575;DHT22;38468;48.114;-1.684;2023-03-11T00:45:34;5.80;80.30
52575;DHT22;38468;48.114;-1.684;2023-03-11T00:47:35;5.80;80.40
52575;DHT22;38468;48.114;-1.684;2023-03-11T00:49:36;5.80;80.50
52575;DHT22;38468;48.114;-1.684;2023-03-11T00:51:36;5.90;80.60
52575;DHT22;38468;48.114;-1.684;2023-03-11T00:53:37;5.80;80.50
52575;DHT22;38468;48.114;-1.684;2023-03-11T00:55:38;5.90;80.60
52575;DHT22;38468;48.114;-1.684;2023-03-11T00:57:39;5.90;80.50
52575;DHT22;38468;48.114;-1.684;2023-03-11T00:59:39;5.70;80.00
52575;DHT22;38468;48.114;-1.684;2023-03-11T01:01:40;5.70;80.30
52575;DHT22;38468;48.114;-1.684;2023-03-11T01:03:41;5.80;80.30
52575;DHT22;38468;48.114;-1.684;2023-03-11T01:05:42;5.80;80.40
52575;DHT22;38468;48.114;-1.684;2023-03-11T01:07:43;5.80;80.30
52575;DHT22;38468;48.114;-1.684;2023-03-11T01:09:43;5.80;80.40
52575;DHT22;38468;48.114;-1.684;2023-03-11T01:11:44;5.80;80.50
52575;DHT22;38468;48.114;-1.684;2023-03-11T01:13:44;5.80;80.50
52575;DHT22;38468;48.114;-1.684;2023-03-11T01:15:45;5.90;80.60
52575;DHT22;38468;48.114;-1.684;2023-03-11T01:17:46;5.90;80.60
52575;DHT22;38468;48.114;-1.684;2023-03-11T01:19:48;5.80;80.40
52575;DHT22;38468;48.114;-1.684;2023-03-11T01:21:48;5.70;80.40
52575;DHT22;38468;48.114;-1.684;2023-03-11T01:23:49;5.70;80.40
52575;DHT22;38468;48.114;-1.684;2023-03-11T01:25:49;5.70;80.50
52575;DHT22;38468;48.114;-1.684;2023-03-11T01:27:50;5.70;80.60
52575;DHT22;38468;48.114;-1.684;2023-03-11T01:29:51;5.70;80.70
52575;DHT22;38468;48.114;-1.684;2023-03-11T01:31:51;5.80;80.70
52575;DHT22;38468;48.114;-1.684;2023-03-11T01:33:52;5.70;80.30
52575;DHT22;38468;48.114;-1.684;2023-03-11T01:35:53;5.60;80.70
52575;DHT22;38468;48.114;-1.684;2023-03-11T01:37:54;5.60;80.80
52575;DHT22;38468;48.114;-1.684;2023-03-11T01:39:55;5.70;80.80
52575;DHT22;38468;48.114;-1.684;2023-03-11T01:41:55;5.70;80.80
52575;DHT22;38468;48.114;-1.684;2023-03-11T01:43:56;5.70;80.90
52575;DHT22;38468;48.114;-1.684;2023-03-11T01:47:57;5.60;80.80
52575;DHT22;38468;48.114;-1.684;2023-03-11T01:49:58;5.70;80.90
52575;DHT22;38468;48.114;-1.684;2023-03-11T01:52:05;5.70;80.80
52575;DHT22;38468;48.114;-1.684;2023-03-11T01:54:13;5.50;80.70
52575;DHT22;38468;48.114;-1.684;2023-03-11T01:56:15;5.50;81.00
52575;DHT22;38468;48.114;-1.684;2023-03-11T01:58:29;5.60;81.10
52575;DHT22;38468;48.114;-1.684;2023-03-11T02:00:31;5.60;80.90
52575;DHT22;38468;48.114;-1.684;2023-03-11T02:02:35;5.60;81.00
52575;DHT22;38468;48.114;-1.684;2023-03-11T02:04:39;5.60;81.00
52575;DHT22;38468;48.114;-1.684;2023-03-11T02:06:41;5.50;81.00
52575;DHT22;38468;48.114;-1.684;2023-03-11T02:08:42;5.40;81.20
52575;DHT22;38468;48.114;-1.684;2023-03-11T02:10:43;5.40;81.50
52575;DHT22;38468;48.114;-1.684;2023-03-11T02:12:46;5.40;81.50
52575;DHT22;38468;48.114;-1.684;2023-03-11T02:14:48;5.40;81.80
52575;DHT22;38468;48.114;-1.684;2023-03-11T02:16:50;5.40;81.80
52575;DHT22;38468;48.114;-1.684;2023-03-11T02:18:51;5.50;81.70
52575;DHT22;38468;48.114;-1.684;2023-03-11T02:21:42;5.50;81.60
52575;DHT22;38468;48.114;-1.684;2023-03-11T02:23:19;5.40;81.60
52575;DHT22;38468;48.114;-1.684;2023-03-11T02:25:40;5.40;81.50
52575;DHT22;38468;48.114;-1.684;2023-03-11T02:27:45;5.50;81.60
52575;DHT22;38468;48.114;-1.684;2023-03-11T02:29:48;5.50;81.50
52575;DHT22;38468;48.114;-1.684;2023-03-11T02:31:51;5.50;81.40
52575;DHT22;38468;48.114;-1.684;2023-03-11T02:33:53;5.50;81.30
52575;DHT22;38468;48.114;-1.684;2023-03-11T02:35:54;5.40;81.30
52575;DHT22;38468;48.114;-1.684;2023-03-11T02:37:54;5.40;81.50
52575;DHT22;38468;48.114;-1.684;2023-03-11T02:42:28;5.40;81.80
52575;DHT22;38468;48.114;-1.684;2023-03-11T02:44:30;5.40;81.90
52575;DHT22;38468;48.114;-1.684;2023-03-11T02:46:31;5.50;82.00
52575;DHT22;38468;48.114;-1.684;2023-03-11T02:48:33;5.50;81.90
52575;DHT22;38468;48.114;-1.684;2023-03-11T02:50:34;5.50;81.70
52575;DHT22;38468;48.114;-1.684;2023-03-11T02:52:36;5.50;81.60
52575;DHT22;38468;48.114;-1.684;2023-03-11T02:54:37;5.50;81.70
52575;DHT22;38468;48.114;-1.684;2023-03-11T02:56:38;5.50;81.60
52575;DHT22;38468;48.114;-1.684;2023-03-11T02:58:38;5.50;81.70
52575;DHT22;38468;48.114;-1.684;2023-03-11T03:00:39;5.50;81.60
52575;DHT22;38468;48.114;-1.684;2023-03-11T03:02:40;5.50;81.60
52575;DHT22;38468;48.114;-1.684;2023-03-11T03:04:41;5.50;81.70
52575;DHT22;38468;48.114;-1.684;2023-03-11T03:06:42;5.50;81.70
52575;DHT22;38468;48.114;-1.684;2023-03-11T03:08:42;5.50;81.80
52575;DHT22;38468;48.114;-1.684;2023-03-11T03:10:43;5.60;82.00
52575;DHT22;38468;48.114;-1.684;2023-03-11T03:12:44;5.50;81.70
52575;DHT22;38468;48.114;-1.684;2023-03-11T03:14:44;5.50;81.90
52575;DHT22;38468;48.114;-1.684;2023-03-11T03:16:45;5.50;82.10
52575;DHT22;38468;48.114;-1.684;2023-03-11T03:18:46;5.50;82.10
52575;DHT22;38468;48.114;-1.684;2023-03-11T03:20:46;5.60;82.20
52575;DHT22;38468;48.114;-1.684;2023-03-11T03:22:48;5.60;82.10
52575;DHT22;38468;48.114;-1.684;2023-03-11T03:24:48;5.60;82.20
52575;DHT22;38468;48.114;-1.684;2023-03-11T03:26:49;5.60;82.10
52575;DHT22;38468;48.114;-1.684;2023-03-11T03:28:50;5.60;82.00
52575;DHT22;38468;48.114;-1.684;2023-03-11T03:30:50;5.70;82.10
52575;DHT22;38468;48.114;-1.684;2023-03-11T03:32:51;5.70;82.10
52575;DHT22;38468;48.114;-1.684;2023-03-11T03:34:51;5.80;82.20
52575;DHT22;38468;48.114;-1.684;2023-03-11T03:36:57;5.80;82.30
52575;DHT22;38468;48.114;-1.684;2023-03-11T03:38:58;5.80;82.20
52575;DHT22;38468;48.114;-1.684;2023-03-11T03:40:59;5.90;82.20
52575;DHT22;38468;48.114;-1.684;2023-03-11T03:42:59;5.90;82.20
52575;DHT22;38468;48.114;-1.684;2023-03-11T03:45:00;5.90;82.10
52575;DHT22;38468;48.114;-1.684;2023-03-11T03:47:01;5.90;81.80
52575;DHT22;38468;48.114;-1.684;2023-03-11T03:49:01;5.80;81.80
52575;DHT22;38468;48.114;-1.684;2023-03-11T03:51:08;5.80;81.80
52575;DHT22;38468;48.114;-1.684;2023-03-11T03:53:09;5.80;81.90
52575;DHT22;38468;48.114;-1.684;2023-03-11T03:55:10;5.80;81.80
52575;DHT22;38468;48.114;-1.684;2023-03-11T03:57:10;5.80;81.60
52575;DHT22;38468;48.114;-1.684;2023-03-11T03:59:12;5.80;81.60
52575;DHT22;38468;48.114;-1.684;2023-03-11T04:01:12;5.80;81.60
52575;DHT22;38468;48.114;-1.684;2023-03-11T04:03:13;5.70;81.50
52575;DHT22;38468;48.114;-1.684;2023-03-11T04:05:13;5.60;81.50
52575;DHT22;38468;48.114;-1.684;2023-03-11T04:07:14;5.50;81.90
52575;DHT22;38468;48.114;-1.684;2023-03-11T04:09:15;5.60;82.10
52575;DHT22;38468;48.114;-1.684;2023-03-11T04:11:15;5.60;82.10
52575;DHT22;38468;48.114;-1.684;2023-03-11T04:13:16;5.60;81.90
52575;DHT22;38468;48.114;-1.684;2023-03-11T04:15:17;5.50;82.00
52575;DHT22;38468;48.114;-1.684;2023-03-11T04:17:17;5.60;82.10
52575;DHT22;38468;48.114;-1.684;2023-03-11T04:19:18;5.50;82.20
52575;DHT22;38468;48.114;-1.684;2023-03-11T04:21:20;5.60;82.20
52575;DHT22;38468;48.114;-1.684;2023-03-11T04:23:21;5.50;82.10
52575;DHT22;38468;48.114;-1.684;2023-03-11T04:25:21;5.50;82.20
52575;DHT22;38468;48.114;-1.684;2023-03-11T04:27:22;5.60;82.30
52575;DHT22;38468;48.114;-1.684;2023-03-11T04:29:23;5.60;82.20
52575;DHT22;38468;48.114;-1.684;2023-03-11T04:31:23;5.50;82.10
52575;DHT22;38468;48.114;-1.684;2023-03-11T04:33:24;5.50;82.20
52575;DHT22;38468;48.114;-1.684;2023-03-11T04:35:25;5.60;82.30
52575;DHT22;38468;48.114;-1.684;2023-03-11T04:37:28;5.60;82.20
52575;DHT22;38468;48.114;-1.684;2023-03-11T04:39:29;5.50;82.20
52575;DHT22;38468;48.114;-1.684;2023-03-11T04:41:30;5.60;82.20
52575;DHT22;38468;48.114;-1.684;2023-03-11T04:43:32;5.50;82.30
52575;DHT22;38468;48.114;-1.684;2023-03-11T04:45:32;5.50;82.30
52575;DHT22;38468;48.114;-1.684;2023-03-11T04:47:33;5.60;82.30
52575;DHT22;38468;48.114;-1.684;2023-03-11T04:49:34;5.60;82.10
52575;DHT22;38468;48.114;-1.684;2023-03-11T04:51:35;5.50;82.00
52575;DHT22;38468;48.114;-1.684;2023-03-11T04:53:35;5.50;82.00
52575;DHT22;38468;48.114;-1.684;2023-03-11T04:55:36;5.60;81.90
52575;DHT22;38468;48.114;-1.684;2023-03-11T04:57:37;5.60;81.90
52575;DHT22;38468;48.114;-1.684;2023-03-11T04:59:37;5.50;81.80
52575;DHT22;38468;48.114;-1.684;2023-03-11T05:01:38;5.50;81.80
52575;DHT22;38468;48.114;-1.684;2023-03-11T05:03:38;5.50;81.90
52575;DHT22;38468;48.114;-1.684;2023-03-11T05:05:39;5.40;81.90
52575;DHT22;38468;48.114;-1.684;2023-03-11T05:07:40;5.40;82.10
52575;DHT22;38468;48.114;-1.684;2023-03-11T05:09:40;5.40;82.20
52575;DHT22;38468;48.114;-1.684;2023-03-11T05:11:41;5.30;82.20
52575;DHT22;38468;48.114;-1.684;2023-03-11T05:13:42;5.40;82.50
52575;DHT22;38468;48.114;-1.684;2023-03-11T05:15:44;5.30;82.30
52575;DHT22;38468;48.114;-1.684;2023-03-11T05:17:45;5.30;82.30
52575;DHT22;38468;48.114;-1.684;2023-03-11T05:19:46;5.40;82.30
52575;DHT22;38468;48.114;-1.684;2023-03-11T05:21:48;5.40;82.30
52575;DHT22;38468;48.114;-1.684;2023-03-11T05:23:48;5.40;82.20
52575;DHT22;38468;48.114;-1.684;2023-03-11T05:25:49;5.50;82.10
52575;DHT22;38468;48.114;-1.684;2023-03-11T05:27:49;5.40;82.00
52575;DHT22;38468;48.114;-1.684;2023-03-11T05:29:50;5.40;82.00
52575;DHT22;38468;48.114;-1.684;2023-03-11T05:31:51;5.40;82.10
52575;DHT22;38468;48.114;-1.684;2023-03-11T05:33:52;5.40;82.10
52575;DHT22;38468;48.114;-1.684;2023-03-11T05:35:53;5.40;82.20
52575;DHT22;38468;48.114;-1.684;2023-03-11T05:37:54;5.40;82.00
52575;DHT22;38468;48.114;-1.684;2023-03-11T05:39:55;5.40;81.90
52575;DHT22;38468;48.114;-1.684;2023-03-11T05:41:55;5.40;82.00
52575;DHT22;38468;48.114;-1.684;2023-03-11T05:43:56;5.40;82.10
52575;DHT22;38468;48.114;-1.684;2023-03-11T05:45:56;5.40;82.10
52575;DHT22;38468;48.114;-1.684;2023-03-11T05:47:57;5.50;82.20
52575;DHT22;38468;48.114;-1.684;2023-03-11T05:49:58;5.50;82.20
52575;DHT22;38468;48.114;-1.684;2023-03-11T05:51:58;5.50;82.10
52575;DHT22;38468;48.114;-1.684;2023-03-11T05:53:59;5.40;82.30
52575;DHT22;38468;48.114;-1.684;2023-03-11T05:56:00;5.50;82.50
52575;DHT22;38468;48.114;-1.684;2023-03-11T05:58:01;5.40;82.70
52575;DHT22;38468;48.114;-1.684;2023-03-11T06:00:04;5.40;82.50
52575;DHT22;38468;48.114;-1.684;2023-03-11T06:02:06;5.40;82.60
52575;DHT22;38468;48.114;-1.684;2023-03-11T06:04:07;5.30;82.90
52575;DHT22;38468;48.114;-1.684;2023-03-11T06:06:09;5.30;83.10
52575;DHT22;38468;48.114;-1.684;2023-03-11T06:08:10;5.30;83.30
52575;DHT22;38468;48.114;-1.684;2023-03-11T06:10:11;5.30;83.40
52575;DHT22;38468;48.114;-1.684;2023-03-11T06:12:12;5.30;83.50
52575;DHT22;38468;48.114;-1.684;2023-03-11T06:14:14;5.40;83.60
52575;DHT22;38468;48.114;-1.684;2023-03-11T06:16:15;5.30;83.50
52575;DHT22;38468;48.114;-1.684;2023-03-11T06:18:15;5.40;83.60
52575;DHT22;38468;48.114;-1.684;2023-03-11T06:20:16;5.40;83.80
52575;DHT22;38468;48.114;-1.684;2023-03-11T06:22:17;5.40;83.80
52575;DHT22;38468;48.114;-1.684;2023-03-11T06:24:18;5.30;83.80
52575;DHT22;38468;48.114;-1.684;2023-03-11T06:26:20;5.40;84.00
52575;DHT22;38468;48.114;-1.684;2023-03-11T06:28:21;5.30;84.00
52575;DHT22;38468;48.114;-1.684;2023-03-11T06:30:22;5.30;84.30
52575;DHT22;38468;48.114;-1.684;2023-03-11T06:32:23;5.30;84.30
52575;DHT22;38468;48.114;-1.684;2023-03-11T06:34:24;5.40;84.30
52575;DHT22;38468;48.114;-1.684;2023-03-11T06:36:25;5.40;84.30
52575;DHT22;38468;48.114;-1.684;2023-03-11T06:38:26;5.40;84.30
52575;DHT22;38468;48.114;-1.684;2023-03-11T06:40:27;5.40;84.30
52575;DHT22;38468;48.114;-1.684;2023-03-11T06:42:28;5.40;84.30
52575;DHT22;38468;48.114;-1.684;2023-03-11T06:44:28;5.40;84.10
52575;DHT22;38468;48.114;-1.684;2023-03-11T06:46:29;5.30;84.20
52575;DHT22;38468;48.114;-1.684;2023-03-11T06:48:30;5.40;84.40
52575;DHT22;38468;48.114;-1.684;2023-03-11T06:50:30;5.40;84.40
52575;DHT22;38468;48.114;-1.684;2023-03-11T06:52:31;5.30;84.60
52575;DHT22;38468;48.114;-1.684;2023-03-11T06:54:32;5.40;84.70
52575;DHT22;38468;48.114;-1.684;2023-03-11T06:56:32;5.30;84.70
52575;DHT22;38468;48.114;-1.684;2023-03-11T06:58:34;5.30;84.80
52575;DHT22;38468;48.114;-1.684;2023-03-11T07:00:35;5.40;85.00
52575;DHT22;38468;48.114;-1.684;2023-03-11T07:02:36;5.40;84.90
52575;DHT22;38468;48.114;-1.684;2023-03-11T07:04:37;5.40;84.80
52575;DHT22;38468;48.114;-1.684;2023-03-11T07:06:37;5.40;84.80
52575;DHT22;38468;48.114;-1.684;2023-03-11T07:08:38;5.40;84.90
52575;DHT22;38468;48.114;-1.684;2023-03-11T07:10:39;5.50;84.80
52575;DHT22;38468;48.114;-1.684;2023-03-11T07:12:39;5.50;84.90
52575;DHT22;38468;48.114;-1.684;2023-03-11T07:14:40;5.50;85.00
52575;DHT22;38468;48.114;-1.684;2023-03-11T07:16:40;5.60;84.90
52575;DHT22;38468;48.114;-1.684;2023-03-11T07:18:42;5.60;84.80
52575;DHT22;38468;48.114;-1.684;2023-03-11T07:20:43;5.50;84.50
52575;DHT22;38468;48.114;-1.684;2023-03-11T07:22:43;5.50;84.50
52575;DHT22;38468;48.114;-1.684;2023-03-11T07:24:45;5.40;84.70
52575;DHT22;38468;48.114;-1.684;2023-03-11T07:26:46;5.50;84.80
52575;DHT22;38468;48.114;-1.684;2023-03-11T07:28:47;5.50;84.80
52575;DHT22;38468;48.114;-1.684;2023-03-11T07:30:49;5.50;84.80
52575;DHT22;38468;48.114;-1.684;2023-03-11T07:32:50;5.50;84.60
52575;DHT22;38468;48.114;-1.684;2023-03-11T07:34:50;5.50;84.60
52575;DHT22;38468;48.114;-1.684;2023-03-11T07:36:51;5.60;84.70
52575;DHT22;38468;48.114;-1.684;2023-03-11T07:38:59;5.70;84.80
52575;DHT22;38468;48.114;-1.684;2023-03-11T07:41:00;5.70;84.70
52575;DHT22;38468;48.114;-1.684;2023-03-11T07:43:01;5.40;84.40
52575;DHT22;38468;48.114;-1.684;2023-03-11T07:45:01;5.40;84.70
52575;DHT22;38468;48.114;-1.684;2023-03-11T07:47:03;5.40;84.90
52575;DHT22;38468;48.114;-1.684;2023-03-11T07:49:04;5.40;84.90
52575;DHT22;38468;48.114;-1.684;2023-03-11T07:51:10;5.40;84.90
52575;DHT22;38468;48.114;-1.684;2023-03-11T07:53:12;5.50;85.00
52575;DHT22;38468;48.114;-1.684;2023-03-11T07:55:12;5.50;85.10
52575;DHT22;38468;48.114;-1.684;2023-03-11T07:57:13;5.60;85.00
52575;DHT22;38468;48.114;-1.684;2023-03-11T07:59:16;5.50;84.90
52575;DHT22;38468;48.114;-1.684;2023-03-11T08:01:19;5.50;85.00
52575;DHT22;38468;48.114;-1.684;2023-03-11T08:03:20;5.40;85.10
52575;DHT22;38468;48.114;-1.684;2023-03-11T08:05:20;5.50;85.20
52575;DHT22;38468;48.114;-1.684;2023-03-11T08:07:21;5.70;85.20
52575;DHT22;38468;48.114;-1.684;2023-03-11T08:09:22;5.60;85.10
52575;DHT22;38468;48.114;-1.684;2023-03-11T08:11:23;5.70;85.00
52575;DHT22;38468;48.114;-1.684;2023-03-11T08:13:24;5.70;84.80
52575;DHT22;38468;48.114;-1.684;2023-03-11T08:15:25;5.60;84.80
52575;DHT22;38468;48.114;-1.684;2023-03-11T08:17:25;5.60;84.90
52575;DHT22;38468;48.114;-1.684;2023-03-11T08:19:26;5.60;85.00
52575;DHT22;38468;48.114;-1.684;2023-03-11T08:21:28;5.50;85.10
52575;DHT22;38468;48.114;-1.684;2023-03-11T08:23:31;5.60;85.30
52575;DHT22;38468;48.114;-1.684;2023-03-11T08:25:32;5.70;85.40
52575;DHT22;38468;48.114;-1.684;2023-03-11T08:27:32;5.80;85.50
52575;DHT22;38468;48.114;-1.684;2023-03-11T08:29:33;5.90;85.40
52575;DHT22;38468;48.114;-1.684;2023-03-11T08:31:34;5.80;85.20
52575;DHT22;38468;48.114;-1.684;2023-03-11T08:33:34;5.70;85.10
52575;DHT22;38468;48.114;-1.684;2023-03-11T08:35:35;5.70;85.10
52575;DHT22;38468;48.114;-1.684;2023-03-11T08:37:36;5.80;85.40
52575;DHT22;38468;48.114;-1.684;2023-03-11T08:39:36;5.90;85.30
52575;DHT22;38468;48.114;-1.684;2023-03-11T08:41:37;5.80;85.10
52575;DHT22;38468;48.114;-1.684;2023-03-11T08:43:38;5.70;85.10
52575;DHT22;38468;48.114;-1.684;2023-03-11T08:45:42;5.80;85.30
52575;DHT22;38468;48.114;-1.684;2023-03-11T08:47:43;5.80;85.30
52575;DHT22;38468;48.114;-1.684;2023-03-11T08:49:43;5.80;85.40
52575;DHT22;38468;48.114;-1.684;2023-03-11T08:51:44;5.90;85.40
52575;DHT22;38468;48.114;-1.684;2023-03-11T08:53:45;5.90;85.40
52575;DHT22;38468;48.114;-1.684;2023-03-11T08:55:45;5.90;85.50
52575;DHT22;38468;48.114;-1.684;2023-03-11T08:57:46;6.00;85.50
52575;DHT22;38468;48.114;-1.684;2023-03-11T08:59:47;6.00;85.30
52575;DHT22;38468;48.114;-1.684;2023-03-11T09:01:47;6.10;85.30
52575;DHT22;38468;48.114;-1.684;2023-03-11T09:03:48;6.10;85.30
52575;DHT22;38468;48.114;-1.684;2023-03-11T09:05:55;6.00;85.10
52575;DHT22;38468;48.114;-1.684;2023-03-11T09:07:56;6.00;85.20
52575;DHT22;38468;48.114;-1.684;2023-03-11T09:09:57;6.00;85.10
52575;DHT22;38468;48.114;-1.684;2023-03-11T09:11:57;6.10;85.10
52575;DHT22;38468;48.114;-1.684;2023-03-11T09:13:58;6.10;85.20
52575;DHT22;38468;48.114;-1.684;2023-03-11T09:15:59;6.20;85.10
52575;DHT22;38468;48.114;-1.684;2023-03-11T09:17:59;6.20;85.10
52575;DHT22;38468;48.114;-1.684;2023-03-11T09:20:00;6.20;85.20
52575;DHT22;38468;48.114;-1.684;2023-03-11T09:22:01;6.20;85.40
52575;DHT22;38468;48.114;-1.684;2023-03-11T09:24:03;6.40;85.50
52575;DHT22;38468;48.114;-1.684;2023-03-11T09:26:04;6.40;85.50
52575;DHT22;38468;48.114;-1.684;2023-03-11T09:28:05;6.40;85.30
52575;DHT22;38468;48.114;-1.684;2023-03-11T09:30:06;6.40;85.20
52575;DHT22;38468;48.114;-1.684;2023-03-11T09:32:11;6.40;85.10
52575;DHT22;38468;48.114;-1.684;2023-03-11T09:34:12;6.30;85.00
52575;DHT22;38468;48.114;-1.684;2023-03-11T09:36:15;6.40;85.20
52575;DHT22;38468;48.114;-1.684;2023-03-11T09:38:16;6.40;85.20
52575;DHT22;38468;48.114;-1.684;2023-03-11T09:40:21;6.40;85.00
52575;DHT22;38468;48.114;-1.684;2023-03-11T09:44:40;6.40;85.20
52575;DHT22;38468;48.114;-1.684;2023-03-11T09:55:38;6.80;85.50
52575;DHT22;38468;48.114;-1.684;2023-03-11T09:57:41;6.90;85.50
52575;DHT22;38468;48.114;-1.684;2023-03-11T09:59:41;6.80;85.00
52575;DHT22;38468;48.114;-1.684;2023-03-11T10:01:47;6.80;85.10
52575;DHT22;38468;48.114;-1.684;2023-03-11T10:03:51;6.80;85.30
52575;DHT22;38468;48.114;-1.684;2023-03-11T10:05:57;6.90;85.40
52575;DHT22;38468;48.114;-1.684;2023-03-11T10:10:58;7.00;85.00
52575;DHT22;38468;48.114;-1.684;2023-03-11T10:16:16;6.90;84.90
52575;DHT22;38468;48.114;-1.684;2023-03-11T10:18:42;7.00;85.20
52575;DHT22;38468;48.114;-1.684;2023-03-11T10:25:10;7.10;85.10
52575;DHT22;38468;48.114;-1.684;2023-03-11T10:27:22;7.20;85.30
52575;DHT22;38468;48.114;-1.684;2023-03-11T10:29:26;7.20;85.10
52575;DHT22;38468;48.114;-1.684;2023-03-11T10:34:12;7.20;85.10
52575;DHT22;38468;48.114;-1.684;2023-03-11T10:36:23;7.20;85.30
52575;DHT22;38468;48.114;-1.684;2023-03-11T10:38:33;7.20;85.50
52575;DHT22;38468;48.114;-1.684;2023-03-11T10:40:41;7.30;85.60
52575;DHT22;38468;48.114;-1.684;2023-03-11T10:42:44;7.30;85.40
52575;DHT22;38468;48.114;-1.684;2023-03-11T10:44:46;7.20;85.40
52575;DHT22;38468;48.114;-1.684;2023-03-11T10:46:46;7.30;85.50
52575;DHT22;38468;48.114;-1.684;2023-03-11T10:48:47;7.40;85.60
52575;DHT22;38468;48.114;-1.684;2023-03-11T10:51:00;7.40;85.50
52575;DHT22;38468;48.114;-1.684;2023-03-11T10:53:08;7.40;85.70
52575;DHT22;38468;48.114;-1.684;2023-03-11T10:55:15;7.50;85.60
52575;DHT22;38468;48.114;-1.684;2023-03-11T10:57:27;7.60;85.70
52575;DHT22;38468;48.114;-1.684;2023-03-11T10:59:49;7.80;85.70
52575;DHT22;38468;48.114;-1.684;2023-03-11T11:01:54;7.80;85.30
52575;DHT22;38468;48.114;-1.684;2023-03-11T11:03:57;7.80;85.10
52575;DHT22;38468;48.114;-1.684;2023-03-11T11:06:05;7.80;85.30
52575;DHT22;38468;48.114;-1.684;2023-03-11T11:08:12;7.80;85.00
52575;DHT22;38468;48.114;-1.684;2023-03-11T11:12:20;7.90;85.10
52575;DHT22;38468;48.114;-1.684;2023-03-11T11:14:21;8.00;85.10
52575;DHT22;38468;48.114;-1.684;2023-03-11T11:16:22;8.00;85.00
52575;DHT22;38468;48.114;-1.684;2023-03-11T11:21:39;8.00;85.30
52575;DHT22;38468;48.114;-1.684;2023-03-11T11:23:48;8.00;85.30
52575;DHT22;38468;48.114;-1.684;2023-03-11T11:25:56;8.10;85.50
52575;DHT22;38468;48.114;-1.684;2023-03-11T11:28:11;8.10;85.40
52575;DHT22;38468;48.114;-1.684;2023-03-11T11:30:15;8.10;85.30
52575;DHT22;38468;48.114;-1.684;2023-03-11T11:32:34;8.10;85.40
52575;DHT22;38468;48.114;-1.684;2023-03-11T11:34:35;8.30;85.50
52575;DHT22;38468;48.114;-1.684;2023-03-11T11:36:36;8.40;85.50
52575;DHT22;38468;48.114;-1.684;2023-03-11T11:38:38;8.40;85.40
52575;DHT22;38468;48.114;-1.684;2023-03-11T11:40:39;8.30;85.20
52575;DHT22;38468;48.114;-1.684;2023-03-11T11:42:46;8.30;85.30
52575;DHT22;38468;48.114;-1.684;2023-03-11T11:44:52;8.40;85.70
52575;DHT22;38468;48.114;-1.684;2023-03-11T11:46:57;8.50;85.90
52575;DHT22;38468;48.114;-1.684;2023-03-11T11:49:19;8.60;85.60
52575;DHT22;38468;48.114;-1.684;2023-03-11T11:52:12;8.60;85.40
52575;DHT22;38468;48.114;-1.684;2023-03-11T11:54:01;8.70;85.40
52575;DHT22;38468;48.114;-1.684;2023-03-11T11:56:06;8.80;85.40
52575;DHT22;38468;48.114;-1.684;2023-03-11T11:58:09;8.70;85.30
52575;DHT22;38468;48.114;-1.684;2023-03-11T12:00:18;8.90;85.40
52575;DHT22;38468;48.114;-1.684;2023-03-11T12:09:49;9.00;85.10
52575;DHT22;38468;48.114;-1.684;2023-03-11T12:12:16;9.00;85.20
52575;DHT22;38468;48.114;-1.684;2023-03-11T12:20:53;9.00;85.00
52575;DHT22;38468;48.114;-1.684;2023-03-11T12:23:17;8.90;84.90
52575;DHT22;38468;48.114;-1.684;2023-03-11T12:25:29;9.00;85.10
52575;DHT22;38468;48.114;-1.684;2023-03-11T12:27:39;9.20;85.40
52575;DHT22;38468;48.114;-1.684;2023-03-11T12:29:45;9.20;85.30
52575;DHT22;38468;48.114;-1.684;2023-03-11T12:31:49;9.30;85.10
52575;DHT22;38468;48.114;-1.684;2023-03-11T12:33:57;9.30;84.80
52575;DHT22;38468;48.114;-1.684;2023-03-11T12:36:00;9.20;84.80
52575;DHT22;38468;48.114;-1.684;2023-03-11T12:42:43;9.30;85.00
52575;DHT22;38468;48.114;-1.684;2023-03-11T12:44:46;9.40;85.10
52575;DHT22;38468;48.114;-1.684;2023-03-11T12:49:12;9.40;85.30
52575;DHT22;38468;48.114;-1.684;2023-03-11T12:53:47;9.60;85.40
52575;DHT22;38468;48.114;-1.684;2023-03-11T12:56:15;9.70;85.50
52575;DHT22;38468;48.114;-1.684;2023-03-11T13:00:56;9.90;85.40
52575;DHT22;38468;48.114;-1.684;2023-03-11T13:07:51;10.00;85.50
52575;DHT22;38468;48.114;-1.684;2023-03-11T13:10:02;10.10;85.70
52575;DHT22;38468;48.114;-1.684;2023-03-11T13:12:40;10.20;85.50
52575;DHT22;38468;48.114;-1.684;2023-03-11T13:14:41;10.20;85.30
52575;DHT22;38468;48.114;-1.684;2023-03-11T13:16:42;10.20;85.10
52575;DHT22;38468;48.114;-1.684;2023-03-11T13:18:45;10.20;85.30
52575;DHT22;38468;48.114;-1.684;2023-03-11T13:20:56;10.20;85.50
52575;DHT22;38468;48.114;-1.684;2023-03-11T13:24:57;10.40;85.70
52575;DHT22;38468;48.114;-1.684;2023-03-11T13:31:45;10.70;85.70
52575;DHT22;38468;48.114;-1.684;2023-03-11T13:33:57;10.70;85.40
52575;DHT22;38468;48.114;-1.684;2023-03-11T13:38:19;10.80;85.70
52575;DHT22;38468;48.114;-1.684;2023-03-11T13:40:41;10.80;85.80
52575;DHT22;38468;48.114;-1.684;2023-03-11T13:42:50;10.90;85.70
52575;DHT22;38468;48.114;-1.684;2023-03-11T13:44:53;10.90;85.60
52575;DHT22;38468;48.114;-1.684;2023-03-11T13:47:08;11.00;85.50
52575;DHT22;38468;48.114;-1.684;2023-03-11T13:51:48;11.20;85.40
52575;DHT22;38468;48.114;-1.684;2023-03-11T13:53:55;11.40;85.20
52575;DHT22;38468;48.114;-1.684;2023-03-11T13:55:56;11.40;85.00
52575;DHT22;38468;48.114;-1.684;2023-03-11T13:57:57;11.50;84.90
52575;DHT22;38468;48.114;-1.684;2023-03-11T14:00:05;11.70;84.90
52575;DHT22;38468;48.114;-1.684;2023-03-11T14:02:17;11.90;84.80
52575;DHT22;38468;48.114;-1.684;2023-03-11T14:04:26;11.90;84.30
52575;DHT22;38468;48.114;-1.684;2023-03-11T14:06:29;11.90;84.00
52575;DHT22;38468;48.114;-1.684;2023-03-11T14:08:34;11.90;84.00
52575;DHT22;38468;48.114;-1.684;2023-03-11T14:10:34;12.00;84.00
52575;DHT22;38468;48.114;-1.684;2023-03-11T14:12:35;12.00;83.90